sensor_id;sensor_type;location;lat;lon;timestamp;P1;durP1;ratioP1;P2;durP2;ratioP2
9409;SDS011;4744;52.576;13.568;2023-06-19T00:00:17;8.02;;;7.32;;
9409;SDS011;4744;52.576;13.568;2023-06-19T00:02:45;7.85;;;7.25;;
9409;SDS011;4744;52.576;13.568;2023-06-19T00:05:12;7.68;;;7.15;;
9409;SDS011;4744;52.576;13.568;2023-06-19T00:07:39;7.45;;;6.85;;
9409;SDS011;4744;52.576;13.568;2023-06-19T00:10:06;7.75;;;7.20;;
9409;SDS011;4744;52.576;13.568;2023-06-19T00:12:35;7.60;;;7.00;;
9409;SDS011;4744;52.576;13.568;2023-06-19T00:15:02;8.48;;;7.88;;
9409;SDS011;4744;52.576;13.568;2023-06-19T00:17:29;7.15;;;6.53;;
9409;SDS011;4744;52.576;13.568;2023-06-19T00:19:56;7.30;;;6.80;;
9409;SDS011;4744;52.576;13.568;2023-06-19T00:22:24;9.02;;;8.32;;
9409;SDS011;4744;52.576;13.568;2023-06-19T00:24:51;8.48;;;7.88;;
9409;SDS011;4744;52.576;13.568;2023-06-19T00:27:18;8.45;;;7.80;;
9409;SDS011;4744;52.576;13.568;2023-06-19T00:29:46;7.90;;;7.20;;
9409;SDS011;4744;52.576;13.568;2023-06-19T00:32:13;7.60;;;7.10;;
9409;SDS011;4744;52.576;13.568;2023-06-19T00:34:40;7.72;;;7.13;;
9409;SDS011;4744;52.576;13.568;2023-06-19T00:37:08;7.30;;;6.80;;
9409;SDS011;4744;52.576;13.568;2023-06-19T00:39:38;7.68;;;7.07;;
9409;SDS011;4744;52.576;13.568;2023-06-19T00:42:06;7.53;;;6.90;;
9409;SDS011;4744;52.576;13.568;2023-06-19T00:44:33;8.68;;;7.97;;
9409;SDS011;4744;52.576;13.568;2023-06-19T00:47:01;7.93;;;7.32;;
9409;SDS011;4744;52.576;13.568;2023-06-19T00:49:30;8.55;;;7.75;;
9409;SDS011;4744;52.576;13.568;2023-06-19T00:51:57;8.13;;;7.45;;
9409;SDS011;4744;52.576;13.568;2023-06-19T00:54:24;8.43;;;7.72;;
9409;SDS011;4744;52.576;13.568;2023-06-19T00:56:51;8.63;;;7.85;;
9409;SDS011;4744;52.576;13.568;2023-06-19T00:59:19;7.50;;;7.00;;
9409;SDS011;4744;52.576;13.568;2023-06-19T01:01:47;8.77;;;7.70;;
9409;SDS011;4744;52.576;13.568;2023-06-19T01:04:15;8.13;;;7.38;;
9409;SDS011;4744;52.576;13.568;2023-06-19T01:06:43;8.98;;;8.27;;
9409;SDS011;4744;52.576;13.568;2023-06-19T01:09:17;8.65;;;7.97;;
9409;SDS011;4744;52.576;13.568;2023-06-19T01:11:47;8.73;;;8.10;;
9409;SDS011;4744;52.576;13.568;2023-06-19T01:14:18;9.00;;;8.30;;
9409;SDS011;4744;52.576;13.568;2023-06-19T01:16:50;8.77;;;8.07;;
9409;SDS011;4744;52.576;13.568;2023-06-19T01:19:19;8.82;;;8.23;;
9409;SDS011;4744;52.576;13.568;2023-06-19T01:21:48;9.70;;;8.90;;
9409;SDS011;4744;52.576;13.568;2023-06-19T01:24:17;8.73;;;7.75;;
9409;SDS011;4744;52.576;13.568;2023-06-19T01:26:44;8.48;;;7.80;;
9409;SDS011;4744;52.576;13.568;2023-06-19T01:29:11;8.52;;;7.82;;
9409;SDS011;4744;52.576;13.568;2023-06-19T01:31:42;8.60;;;7.80;;
9409;SDS011;4744;52.576;13.568;2023-06-19T01:34:17;9.10;;;8.20;;
9409;SDS011;4744;52.576;13.568;2023-06-19T01:36:47;9.35;;;8.55;;
9409;SDS011;4744;52.576;13.568;2023-06-19T01:39:16;8.70;;;8.10;;
9409;SDS011;4744;52.576;13.568;2023-06-19T01:41:44;8.27;;;7.65;;
9409;SDS011;4744;52.576;13.568;2023-06-19T01:44:12;9.15;;;8.43;;
9409;SDS011;4744;52.576;13.568;2023-06-19T01:46:39;9.25;;;8.45;;
9409;SDS011;4744;52.576;13.568;2023-06-19T01:49:07;8.50;;;7.88;;
9409;SDS011;4744;52.576;13.568;2023-06-19T01:51:34;8.00;;;7.40;;
9409;SDS011;4744;52.576;13.568;2023-06-19T01:54:02;7.93;;;7.38;;
9409;SDS011;4744;52.576;13.568;2023-06-19T01:56:30;8.07;;;7.35;;
9409;SDS011;4744;52.576;13.568;2023-06-19T01:58:57;9.43;;;8.55;;
9409;SDS011;4744;52.576;13.568;2023-06-19T02:01:24;9.43;;;8.60;;
9409;SDS011;4744;52.576;13.568;2023-06-19T02:03:51;9.75;;;8.82;;
9409;SDS011;4744;52.576;13.568;2023-06-19T02:06:18;9.82;;;9.13;;
9409;SDS011;4744;52.576;13.568;2023-06-19T02:08:46;9.27;;;8.48;;
9409;SDS011;4744;52.576;13.568;2023-06-19T02:11:13;10.00;;;9.20;;
9409;SDS011;4744;52.576;13.568;2023-06-19T02:13:41;9.95;;;9.15;;
9409;SDS011;4744;52.576;13.568;2023-06-19T02:16:08;9.98;;;9.07;;
9409;SDS011;4744;52.576;13.568;2023-06-19T02:18:35;9.55;;;8.85;;
9409;SDS011;4744;52.576;13.568;2023-06-19T02:21:02;9.60;;;8.90;;
9409;SDS011;4744;52.576;13.568;2023-06-19T02:23:29;9.05;;;8.45;;
9409;SDS011;4744;52.576;13.568;2023-06-19T02:25:56;8.50;;;7.85;;
9409;SDS011;4744;52.576;13.568;2023-06-19T02:28:23;8.60;;;7.90;;
9409;SDS011;4744;52.576;13.568;2023-06-19T02:30:52;9.30;;;8.60;;
9409;SDS011;4744;52.576;13.568;2023-06-19T02:33:20;8.82;;;8.23;;
9409;SDS011;4744;52.576;13.568;2023-06-19T02:35:47;9.13;;;8.43;;
9409;SDS011;4744;52.576;13.568;2023-06-19T02:38:13;9.30;;;8.60;;
9409;SDS011;4744;52.576;13.568;2023-06-19T02:40:40;7.88;;;7.28;;
9409;SDS011;4744;52.576;13.568;2023-06-19T02:43:07;9.52;;;8.73;;
9409;SDS011;4744;52.576;13.568;2023-06-19T02:45:34;8.55;;;7.85;;
9409;SDS011;4744;52.576;13.568;2023-06-19T02:48:02;8.73;;;8.02;;
9409;SDS011;4744;52.576;13.568;2023-06-19T02:50:30;10.05;;;9.25;;
9409;SDS011;4744;52.576;13.568;2023-06-19T02:52:57;10.48;;;9.70;;
9409;SDS011;4744;52.576;13.568;2023-06-19T02:55:24;9.93;;;9.13;;
9409;SDS011;4744;52.576;13.568;2023-06-19T02:57:51;10.45;;;9.55;;
9409;SDS011;4744;52.576;13.568;2023-06-19T03:00:18;10.27;;;9.48;;
9409;SDS011;4744;52.576;13.568;2023-06-19T03:02:45;9.85;;;8.95;;
9409;SDS011;4744;52.576;13.568;2023-06-19T03:05:15;9.30;;;8.50;;
9409;SDS011;4744;52.576;13.568;2023-06-19T03:07:41;11.23;;;10.10;;
9409;SDS011;4744;52.576;13.568;2023-06-19T03:10:09;10.38;;;9.55;;
9409;SDS011;4744;52.576;13.568;2023-06-19T03:12:36;9.90;;;8.88;;
9409;SDS011;4744;52.576;13.568;2023-06-19T03:15:03;10.93;;;9.93;;
9409;SDS011;4744;52.576;13.568;2023-06-19T03:17:30;9.80;;;9.02;;
9409;SDS011;4744;52.576;13.568;2023-06-19T03:19:57;9.68;;;8.88;;
9409;SDS011;4744;52.576;13.568;2023-06-19T03:22:25;10.75;;;9.82;;
9409;SDS011;4744;52.576;13.568;2023-06-19T03:24:52;11.43;;;10.32;;
9409;SDS011;4744;52.576;13.568;2023-06-19T03:27:19;10.95;;;10.00;;
9409;SDS011;4744;52.576;13.568;2023-06-19T03:29:46;10.55;;;9.75;;
9409;SDS011;4744;52.576;13.568;2023-06-19T03:32:13;10.80;;;9.85;;
9409;SDS011;4744;52.576;13.568;2023-06-19T03:34:39;10.85;;;10.02;;
9409;SDS011;4744;52.576;13.568;2023-06-19T03:37:06;11.10;;;10.15;;
9409;SDS011;4744;52.576;13.568;2023-06-19T03:39:35;11.15;;;10.25;;
9409;SDS011;4744;52.576;13.568;2023-06-19T03:42:02;10.80;;;9.80;;
9409;SDS011;4744;52.576;13.568;2023-06-19T03:44:29;10.45;;;9.63;;
9409;SDS011;4744;52.576;13.568;2023-06-19T03:46:55;10.45;;;9.63;;
9409;SDS011;4744;52.576;13.568;2023-06-19T03:49:22;10.40;;;9.43;;
9409;SDS011;4744;52.576;13.568;2023-06-19T03:51:49;10.13;;;9.43;;
9409;SDS011;4744;52.576;13.568;2023-06-19T03:54:16;12.80;;;11.23;;
9409;SDS011;4744;52.576;13.568;2023-06-19T03:56:44;11.05;;;10.23;;
9409;SDS011;4744;52.576;13.568;2023-06-19T03:59:11;11.38;;;10.48;;
9409;SDS011;4744;52.576;13.568;2023-06-19T04:01:38;11.35;;;10.45;;
9409;SDS011;4744;52.576;13.568;2023-06-19T04:04:05;11.60;;;10.80;;
9409;SDS011;4744;52.576;13.568;2023-06-19T04:06:32;10.40;;;9.70;;
9409;SDS011;4744;52.576;13.568;2023-06-19T04:08:59;10.98;;;10.07;;
9409;SDS011;4744;52.576;13.568;2023-06-19T04:11:26;11.95;;;10.95;;
9409;SDS011;4744;52.576;13.568;2023-06-19T04:13:55;12.85;;;11.85;;
9409;SDS011;4744;52.576;13.568;2023-06-19T04:16:21;11.88;;;10.73;;
9409;SDS011;4744;52.576;13.568;2023-06-19T04:18:48;10.95;;;10.15;;
9409;SDS011;4744;52.576;13.568;2023-06-19T04:21:15;11.77;;;10.80;;
9409;SDS011;4744;52.576;13.568;2023-06-19T04:23:42;11.73;;;10.82;;
9409;SDS011;4744;52.576;13.568;2023-06-19T04:26:09;11.25;;;10.35;;
9409;SDS011;4744;52.576;13.568;2023-06-19T04:28:36;11.00;;;10.13;;
9409;SDS011;4744;52.576;13.568;2023-06-19T04:31:04;11.18;;;10.27;;
9409;SDS011;4744;52.576;13.568;2023-06-19T04:33:31;12.23;;;11.15;;
9409;SDS011;4744;52.576;13.568;2023-06-19T04:35:58;11.40;;;10.57;;
9409;SDS011;4744;52.576;13.568;2023-06-19T04:38:25;10.63;;;9.77;;
9409;SDS011;4744;52.576;13.568;2023-06-19T04:40:52;12.02;;;11.05;;
9409;SDS011;4744;52.576;13.568;2023-06-19T04:43:20;11.60;;;10.73;;
9409;SDS011;4744;52.576;13.568;2023-06-19T04:45:49;11.65;;;10.65;;
9409;SDS011;4744;52.576;13.568;2023-06-19T04:48:17;12.10;;;11.10;;
9409;SDS011;4744;52.576;13.568;2023-06-19T04:50:44;11.55;;;10.73;;
9409;SDS011;4744;52.576;13.568;2023-06-19T04:53:11;12.20;;;11.20;;
9409;SDS011;4744;52.576;13.568;2023-06-19T04:55:38;12.52;;;11.52;;
9409;SDS011;4744;52.576;13.568;2023-06-19T04:58:05;11.05;;;10.18;;
9409;SDS011;4744;52.576;13.568;2023-06-19T05:00:32;11.40;;;10.60;;
9409;SDS011;4744;52.576;13.568;2023-06-19T05:02:58;9.82;;;9.02;;
9409;SDS011;4744;52.576;13.568;2023-06-19T05:05:27;11.55;;;10.55;;
9409;SDS011;4744;52.576;13.568;2023-06-19T05:07:54;10.82;;;10.00;;
9409;SDS011;4744;52.576;13.568;2023-06-19T05:10:21;11.57;;;10.68;;
9409;SDS011;4744;52.576;13.568;2023-06-19T05:12:48;11.70;;;10.65;;
9409;SDS011;4744;52.576;13.568;2023-06-19T05:15:15;12.35;;;11.35;;
9409;SDS011;4744;52.576;13.568;2023-06-19T05:17:42;11.35;;;10.43;;
9409;SDS011;4744;52.576;13.568;2023-06-19T05:20:11;11.90;;;11.00;;
9409;SDS011;4744;52.576;13.568;2023-06-19T05:22:40;10.20;;;9.40;;
9409;SDS011;4744;52.576;13.568;2023-06-19T05:25:07;10.60;;;9.70;;
9409;SDS011;4744;52.576;13.568;2023-06-19T05:27:35;9.88;;;9.18;;
9409;SDS011;4744;52.576;13.568;2023-06-19T05:30:02;10.57;;;9.68;;
9409;SDS011;4744;52.576;13.568;2023-06-19T05:32:30;10.20;;;9.43;;
9409;SDS011;4744;52.576;13.568;2023-06-19T05:34:56;11.45;;;10.45;;
9409;SDS011;4744;52.576;13.568;2023-06-19T05:37:23;10.50;;;9.60;;
9409;SDS011;4744;52.576;13.568;2023-06-19T05:39:53;9.52;;;8.82;;
9409;SDS011;4744;52.576;13.568;2023-06-19T05:42:20;9.82;;;9.10;;
9409;SDS011;4744;52.576;13.568;2023-06-19T05:44:47;9.35;;;8.73;;
9409;SDS011;4744;52.576;13.568;2023-06-19T05:47:14;9.75;;;8.95;;
9409;SDS011;4744;52.576;13.568;2023-06-19T05:49:42;11.02;;;10.23;;
9409;SDS011;4744;52.576;13.568;2023-06-19T05:52:09;12.20;;;11.20;;
9409;SDS011;4744;52.576;13.568;2023-06-19T05:54:35;13.52;;;12.52;;
9409;SDS011;4744;52.576;13.568;2023-06-19T05:57:04;13.18;;;12.07;;
9409;SDS011;4744;52.576;13.568;2023-06-19T05:59:31;14.18;;;12.98;;
9409;SDS011;4744;52.576;13.568;2023-06-19T06:01:58;12.75;;;11.65;;
9409;SDS011;4744;52.576;13.568;2023-06-19T06:04:28;13.00;;;11.93;;
9409;SDS011;4744;52.576;13.568;2023-06-19T06:06:55;12.35;;;11.35;;
9409;SDS011;4744;52.576;13.568;2023-06-19T06:09:22;11.90;;;10.90;;
9409;SDS011;4744;52.576;13.568;2023-06-19T06:11:49;13.07;;;11.98;;
9409;SDS011;4744;52.576;13.568;2023-06-19T06:14:17;13.20;;;12.15;;
9409;SDS011;4744;52.576;13.568;2023-06-19T06:16:44;11.93;;;10.98;;
9409;SDS011;4744;52.576;13.568;2023-06-19T06:19:11;11.98;;;11.07;;
9409;SDS011;4744;52.576;13.568;2023-06-19T06:21:38;11.10;;;10.30;;
9409;SDS011;4744;52.576;13.568;2023-06-19T06:24:06;12.80;;;11.90;;
9409;SDS011;4744;52.576;13.568;2023-06-19T06:26:33;13.00;;;11.98;;
9409;SDS011;4744;52.576;13.568;2023-06-19T06:29:00;12.10;;;11.18;;
9409;SDS011;4744;52.576;13.568;2023-06-19T06:31:28;12.35;;;11.45;;
9409;SDS011;4744;52.576;13.568;2023-06-19T06:33:55;13.75;;;12.65;;
9409;SDS011;4744;52.576;13.568;2023-06-19T06:36:22;12.90;;;11.90;;
9409;SDS011;4744;52.576;13.568;2023-06-19T06:38:50;13.15;;;12.05;;
9409;SDS011;4744;52.576;13.568;2023-06-19T06:41:17;12.00;;;11.10;;
9409;SDS011;4744;52.576;13.568;2023-06-19T06:43:43;12.00;;;11.02;;
9409;SDS011;4744;52.576;13.568;2023-06-19T06:46:10;11.68;;;10.65;;
9409;SDS011;4744;52.576;13.568;2023-06-19T06:48:39;12.40;;;11.40;;
9409;SDS011;4744;52.576;13.568;2023-06-19T06:51:05;11.55;;;10.50;;
9409;SDS011;4744;52.576;13.568;2023-06-19T06:53:34;11.25;;;10.35;;
9409;SDS011;4744;52.576;13.568;2023-06-19T06:56:01;11.43;;;10.40;;
9409;SDS011;4744;52.576;13.568;2023-06-19T06:58:28;12.30;;;11.30;;
9409;SDS011;4744;52.576;13.568;2023-06-19T07:00:55;13.82;;;12.63;;
9409;SDS011;4744;52.576;13.568;2023-06-19T07:03:22;13.82;;;12.40;;
9409;SDS011;4744;52.576;13.568;2023-06-19T07:05:50;13.27;;;11.98;;
9409;SDS011;4744;52.576;13.568;2023-06-19T07:08:17;12.93;;;11.75;;
9409;SDS011;4744;52.576;13.568;2023-06-19T07:10:44;11.68;;;10.68;;
9409;SDS011;4744;52.576;13.568;2023-06-19T07:13:11;13.55;;;12.25;;
9409;SDS011;4744;52.576;13.568;2023-06-19T07:15:38;12.43;;;11.32;;
9409;SDS011;4744;52.576;13.568;2023-06-19T07:18:05;12.05;;;11.07;;
9409;SDS011;4744;52.576;13.568;2023-06-19T07:20:32;11.15;;;10.25;;
9409;SDS011;4744;52.576;13.568;2023-06-19T07:23:00;11.43;;;10.40;;
9409;SDS011;4744;52.576;13.568;2023-06-19T07:25:27;11.93;;;11.02;;
9409;SDS011;4744;52.576;13.568;2023-06-19T07:27:54;11.27;;;10.27;;
9409;SDS011;4744;52.576;13.568;2023-06-19T07:30:21;11.73;;;10.63;;
9409;SDS011;4744;52.576;13.568;2023-06-19T07:32:48;11.93;;;11.00;;
9409;SDS011;4744;52.576;13.568;2023-06-19T07:35:15;11.20;;;10.27;;
9409;SDS011;4744;52.576;13.568;2023-06-19T07:37:42;11.50;;;10.60;;
9409;SDS011;4744;52.576;13.568;2023-06-19T07:40:11;9.80;;;9.10;;
9409;SDS011;4744;52.576;13.568;2023-06-19T07:42:38;10.57;;;9.68;;
9409;SDS011;4744;52.576;13.568;2023-06-19T07:45:05;9.90;;;9.10;;
9409;SDS011;4744;52.576;13.568;2023-06-19T07:47:33;9.30;;;8.60;;
9409;SDS011;4744;52.576;13.568;2023-06-19T07:50:01;10.13;;;9.38;;
9409;SDS011;4744;52.576;13.568;2023-06-19T07:52:28;9.65;;;8.85;;
9409;SDS011;4744;52.576;13.568;2023-06-19T07:54:56;10.10;;;9.20;;
9409;SDS011;4744;52.576;13.568;2023-06-19T07:57:25;10.63;;;9.82;;
9409;SDS011;4744;52.576;13.568;2023-06-19T07:59:54;9.35;;;8.55;;
9409;SDS011;4744;52.576;13.568;2023-06-19T08:02:21;9.52;;;8.75;;
9409;SDS011;4744;52.576;13.568;2023-06-19T08:04:48;10.27;;;9.35;;
9409;SDS011;4744;52.576;13.568;2023-06-19T08:07:14;9.63;;;8.93;;
9409;SDS011;4744;52.576;13.568;2023-06-19T08:09:42;9.85;;;9.05;;
9409;SDS011;4744;52.576;13.568;2023-06-19T08:12:09;9.52;;;8.82;;
9409;SDS011;4744;52.576;13.568;2023-06-19T08:14:37;9.75;;;8.95;;
9409;SDS011;4744;52.576;13.568;2023-06-19T08:17:04;9.88;;;9.18;;
9409;SDS011;4744;52.576;13.568;2023-06-19T08:19:31;9.65;;;8.95;;
9409;SDS011;4744;52.576;13.568;2023-06-19T08:21:58;9.50;;;8.63;;
9409;SDS011;4744;52.576;13.568;2023-06-19T08:24:25;9.00;;;8.30;;
9409;SDS011;4744;52.576;13.568;2023-06-19T08:26:52;9.23;;;8.52;;
9409;SDS011;4744;52.576;13.568;2023-06-19T08:29:20;8.30;;;7.60;;
9409;SDS011;4744;52.576;13.568;2023-06-19T08:31:49;9.55;;;8.85;;
9409;SDS011;4744;52.576;13.568;2023-06-19T08:34:16;9.25;;;8.52;;
9409;SDS011;4744;52.576;13.568;2023-06-19T08:36:43;7.43;;;6.80;;
9409;SDS011;4744;52.576;13.568;2023-06-19T08:39:10;8.30;;;7.70;;
9409;SDS011;4744;52.576;13.568;2023-06-19T08:41:37;8.55;;;7.95;;
9409;SDS011;4744;52.576;13.568;2023-06-19T08:44:04;8.23;;;7.60;;
9409;SDS011;4744;52.576;13.568;2023-06-19T08:46:32;8.20;;;7.50;;
9409;SDS011;4744;52.576;13.568;2023-06-19T08:49:03;8.52;;;7.93;;
9409;SDS011;4744;52.576;13.568;2023-06-19T08:51:31;7.47;;;6.97;;
9409;SDS011;4744;52.576;13.568;2023-06-19T08:54:00;8.07;;;7.47;;
9409;SDS011;4744;52.576;13.568;2023-06-19T08:56:29;7.43;;;6.93;;
9409;SDS011;4744;52.576;13.568;2023-06-19T08:59:07;7.78;;;7.18;;
9409;SDS011;4744;52.576;13.568;2023-06-19T09:01:35;8.88;;;8.18;;
9409;SDS011;4744;52.576;13.568;2023-06-19T09:04:09;9.10;;;8.30;;
9409;SDS011;4744;52.576;13.568;2023-06-19T09:06:36;9.77;;;9.05;;
9409;SDS011;4744;52.576;13.568;2023-06-19T09:09:13;8.98;;;8.15;;
9409;SDS011;4744;52.576;13.568;2023-06-19T09:11:40;8.73;;;7.95;;
9409;SDS011;4744;52.576;13.568;2023-06-19T09:14:09;9.15;;;8.35;;
9409;SDS011;4744;52.576;13.568;2023-06-19T09:16:37;9.55;;;8.85;;
9409;SDS011;4744;52.576;13.568;2023-06-19T09:19:05;8.43;;;7.82;;
9409;SDS011;4744;52.576;13.568;2023-06-19T09:21:34;8.75;;;8.05;;
9409;SDS011;4744;52.576;13.568;2023-06-19T09:24:03;9.15;;;8.35;;
9409;SDS011;4744;52.576;13.568;2023-06-19T09:26:31;8.88;;;8.18;;
9409;SDS011;4744;52.576;13.568;2023-06-19T09:28:58;7.88;;;7.38;;
9409;SDS011;4744;52.576;13.568;2023-06-19T09:31:35;8.88;;;8.07;;
9409;SDS011;4744;52.576;13.568;2023-06-19T09:34:03;8.48;;;7.88;;
9409;SDS011;4744;52.576;13.568;2023-06-19T09:36:30;9.20;;;8.30;;
9409;SDS011;4744;52.576;13.568;2023-06-19T09:39:00;9.02;;;8.27;;
9409;SDS011;4744;52.576;13.568;2023-06-19T09:41:29;9.65;;;8.85;;
9409;SDS011;4744;52.576;13.568;2023-06-19T09:43:56;9.32;;;8.63;;
9409;SDS011;4744;52.576;13.568;2023-06-19T09:46:26;8.68;;;8.07;;
9409;SDS011;4744;52.576;13.568;2023-06-19T09:48:58;9.63;;;8.90;;
9409;SDS011;4744;52.576;13.568;2023-06-19T09:51:30;9.60;;;8.90;;
9409;SDS011;4744;52.576;13.568;2023-06-19T09:53:57;10.48;;;9.57;;
9409;SDS011;4744;52.576;13.568;2023-06-19T09:56:28;10.63;;;9.82;;
9409;SDS011;4744;52.576;13.568;2023-06-19T09:58:56;10.00;;;9.10;;
9409;SDS011;4744;52.576;13.568;2023-06-19T10:01:25;10.85;;;9.95;;
9409;SDS011;4744;52.576;13.568;2023-06-19T10:04:01;10.20;;;9.40;;
9409;SDS011;4744;52.576;13.568;2023-06-19T10:06:29;10.02;;;9.23;;
9409;SDS011;4744;52.576;13.568;2023-06-19T10:09:04;9.95;;;9.25;;
9409;SDS011;4744;52.576;13.568;2023-06-19T10:11:45;11.30;;;10.40;;
9409;SDS011;4744;52.576;13.568;2023-06-19T10:14:13;10.88;;;10.07;;
9409;SDS011;4744;52.576;13.568;2023-06-19T10:16:43;11.13;;;10.13;;
9409;SDS011;4744;52.576;13.568;2023-06-19T10:19:13;10.65;;;9.90;;
9409;SDS011;4744;52.576;13.568;2023-06-19T10:21:44;10.73;;;9.88;;
9409;SDS011;4744;52.576;13.568;2023-06-19T10:24:16;11.27;;;10.35;;
9409;SDS011;4744;52.576;13.568;2023-06-19T10:26:55;10.38;;;9.50;;
9409;SDS011;4744;52.576;13.568;2023-06-19T10:29:22;11.30;;;10.50;;
9409;SDS011;4744;52.576;13.568;2023-06-19T10:31:50;11.00;;;10.10;;
9409;SDS011;4744;52.576;13.568;2023-06-19T10:34:17;11.50;;;10.60;;
9409;SDS011;4744;52.576;13.568;2023-06-19T10:36:44;10.70;;;9.70;;
9409;SDS011;4744;52.576;13.568;2023-06-19T10:39:11;10.85;;;9.85;;
9409;SDS011;4744;52.576;13.568;2023-06-19T10:41:42;10.98;;;9.93;;
9409;SDS011;4744;52.576;13.568;2023-06-19T10:44:09;11.30;;;10.40;;
9409;SDS011;4744;52.576;13.568;2023-06-19T10:46:38;11.32;;;10.32;;
9409;SDS011;4744;52.576;13.568;2023-06-19T10:49:06;11.48;;;10.50;;
9409;SDS011;4744;52.576;13.568;2023-06-19T10:51:35;10.43;;;9.52;;
9409;SDS011;4744;52.576;13.568;2023-06-19T10:54:03;11.32;;;10.43;;
9409;SDS011;4744;52.576;13.568;2023-06-19T10:56:30;11.77;;;10.77;;
9409;SDS011;4744;52.576;13.568;2023-06-19T10:58:59;13.10;;;10.68;;
9409;SDS011;4744;52.576;13.568;2023-06-19T11:01:33;10.23;;;9.32;;
9409;SDS011;4744;52.576;13.568;2023-06-19T11:04:02;10.50;;;9.57;;
9409;SDS011;4744;52.576;13.568;2023-06-19T11:06:30;9.57;;;8.82;;
9409;SDS011;4744;52.576;13.568;2023-06-19T11:08:57;10.80;;;9.90;;
9409;SDS011;4744;52.576;13.568;2023-06-19T11:11:34;9.75;;;9.05;;
9409;SDS011;4744;52.576;13.568;2023-06-19T11:14:03;10.20;;;9.43;;
9409;SDS011;4744;52.576;13.568;2023-06-19T11:16:30;9.68;;;8.88;;
9409;SDS011;4744;52.576;13.568;2023-06-19T11:18:57;10.35;;;9.43;;
9409;SDS011;4744;52.576;13.568;2023-06-19T11:21:29;10.13;;;9.32;;
9409;SDS011;4744;52.576;13.568;2023-06-19T11:23:58;8.48;;;7.90;;
9409;SDS011;4744;52.576;13.568;2023-06-19T11:26:25;9.50;;;8.70;;
9409;SDS011;4744;52.576;13.568;2023-06-19T11:28:52;9.02;;;8.35;;
9409;SDS011;4744;52.576;13.568;2023-06-19T11:31:25;8.73;;;8.02;;
9409;SDS011;4744;52.576;13.568;2023-06-19T11:33:57;12.82;;;9.80;;
9409;SDS011;4744;52.576;13.568;2023-06-19T11:36:24;9.70;;;8.90;;
9409;SDS011;4744;52.576;13.568;2023-06-19T11:38:51;10.55;;;9.73;;
9409;SDS011;4744;52.576;13.568;2023-06-19T11:41:24;9.93;;;9.13;;
9409;SDS011;4744;52.576;13.568;2023-06-19T11:43:57;9.30;;;8.60;;
9409;SDS011;4744;52.576;13.568;2023-06-19T11:46:29;9.38;;;8.75;;
9409;SDS011;4744;52.576;13.568;2023-06-19T11:49:06;9.10;;;8.25;;
9409;SDS011;4744;52.576;13.568;2023-06-19T11:51:34;8.85;;;8.07;;
9409;SDS011;4744;52.576;13.568;2023-06-19T11:54:01;8.77;;;8.18;;
9409;SDS011;4744;52.576;13.568;2023-06-19T11:56:28;8.90;;;8.18;;
9409;SDS011;4744;52.576;13.568;2023-06-19T11:58:55;7.95;;;7.35;;
9409;SDS011;4744;52.576;13.568;2023-06-19T12:01:22;8.45;;;7.75;;
9409;SDS011;4744;52.576;13.568;2023-06-19T12:03:50;9.02;;;8.18;;
9409;SDS011;4744;52.576;13.568;2023-06-19T12:06:17;8.98;;;8.27;;
9409;SDS011;4744;52.576;13.568;2023-06-19T12:08:44;8.85;;;8.15;;
9409;SDS011;4744;52.576;13.568;2023-06-19T12:11:11;8.38;;;7.68;;
9409;SDS011;4744;52.576;13.568;2023-06-19T12:13:38;8.60;;;7.90;;
9409;SDS011;4744;52.576;13.568;2023-06-19T12:16:06;8.48;;;7.78;;
9409;SDS011;4744;52.576;13.568;2023-06-19T12:18:33;8.90;;;7.90;;
9409;SDS011;4744;52.576;13.568;2023-06-19T12:21:02;8.30;;;7.70;;
9409;SDS011;4744;52.576;13.568;2023-06-19T12:23:29;8.30;;;7.78;;
9409;SDS011;4744;52.576;13.568;2023-06-19T12:25:56;7.75;;;7.25;;
9409;SDS011;4744;52.576;13.568;2023-06-19T12:28:23;7.85;;;7.25;;
9409;SDS011;4744;52.576;13.568;2023-06-19T12:30:50;8.52;;;7.70;;
9409;SDS011;4744;52.576;13.568;2023-06-19T12:33:21;7.47;;;6.97;;
9409;SDS011;4744;52.576;13.568;2023-06-19T12:35:48;7.53;;;6.68;;
9409;SDS011;4744;52.576;13.568;2023-06-19T12:38:16;8.25;;;7.47;;
9409;SDS011;4744;52.576;13.568;2023-06-19T12:40:43;8.07;;;6.90;;
9409;SDS011;4744;52.576;13.568;2023-06-19T12:43:10;7.78;;;7.10;;
9409;SDS011;4744;52.576;13.568;2023-06-19T12:45:37;7.32;;;6.70;;
9409;SDS011;4744;52.576;13.568;2023-06-19T12:48:06;7.00;;;6.50;;
9409;SDS011;4744;52.576;13.568;2023-06-19T12:50:33;7.18;;;6.57;;
9409;SDS011;4744;52.576;13.568;2023-06-19T12:53:00;6.85;;;6.35;;
9409;SDS011;4744;52.576;13.568;2023-06-19T12:55:29;7.32;;;6.72;;
9409;SDS011;4744;52.576;13.568;2023-06-19T12:57:55;7.20;;;6.60;;
9409;SDS011;4744;52.576;13.568;2023-06-19T13:00:22;7.35;;;6.75;;
9409;SDS011;4744;52.576;13.568;2023-06-19T13:02:49;7.32;;;6.80;;
9409;SDS011;4744;52.576;13.568;2023-06-19T13:05:16;6.85;;;6.43;;
9409;SDS011;4744;52.576;13.568;2023-06-19T13:07:43;7.57;;;7.05;;
9409;SDS011;4744;52.576;13.568;2023-06-19T13:10:10;7.88;;;7.10;;
9409;SDS011;4744;52.576;13.568;2023-06-19T13:12:38;7.88;;;7.30;;
9409;SDS011;4744;52.576;13.568;2023-06-19T13:15:06;7.43;;;6.82;;
9409;SDS011;4744;52.576;13.568;2023-06-19T13:17:33;6.60;;;6.15;;
9409;SDS011;4744;52.576;13.568;2023-06-19T13:20:00;6.78;;;6.22;;
9409;SDS011;4744;52.576;13.568;2023-06-19T13:22:29;6.63;;;6.13;;
9409;SDS011;4744;52.576;13.568;2023-06-19T13:24:55;6.85;;;6.25;;
9409;SDS011;4744;52.576;13.568;2023-06-19T13:27:22;6.80;;;6.30;;
9409;SDS011;4744;52.576;13.568;2023-06-19T13:29:51;6.85;;;6.35;;
9409;SDS011;4744;52.576;13.568;2023-06-19T13:32:20;6.82;;;6.25;;
9409;SDS011;4744;52.576;13.568;2023-06-19T13:34:47;5.93;;;5.53;;
9409;SDS011;4744;52.576;13.568;2023-06-19T13:37:14;7.30;;;6.15;;
9409;SDS011;4744;52.576;13.568;2023-06-19T13:39:41;6.75;;;6.20;;
9409;SDS011;4744;52.576;13.568;2023-06-19T13:42:08;7.00;;;6.53;;
9409;SDS011;4744;52.576;13.568;2023-06-19T13:44:35;6.40;;;5.90;;
9409;SDS011;4744;52.576;13.568;2023-06-19T13:47:04;6.32;;;5.80;;
9409;SDS011;4744;52.576;13.568;2023-06-19T13:49:31;6.90;;;6.40;;
9409;SDS011;4744;52.576;13.568;2023-06-19T13:51:58;6.35;;;5.85;;
9409;SDS011;4744;52.576;13.568;2023-06-19T13:54:25;6.88;;;6.35;;
9409;SDS011;4744;52.576;13.568;2023-06-19T13:56:52;6.57;;;6.18;;
9409;SDS011;4744;52.576;13.568;2023-06-19T13:59:19;8.50;;;6.13;;
9409;SDS011;4744;52.576;13.568;2023-06-19T14:01:46;6.13;;;5.70;;
9409;SDS011;4744;52.576;13.568;2023-06-19T14:04:14;6.60;;;6.10;;
9409;SDS011;4744;52.576;13.568;2023-06-19T14:06:41;7.45;;;6.85;;
9409;SDS011;4744;52.576;13.568;2023-06-19T14:09:09;7.30;;;6.80;;
9409;SDS011;4744;52.576;13.568;2023-06-19T14:11:36;6.70;;;6.20;;
9409;SDS011;4744;52.576;13.568;2023-06-19T14:14:02;6.82;;;6.32;;
9409;SDS011;4744;52.576;13.568;2023-06-19T14:16:29;6.68;;;6.22;;
9409;SDS011;4744;52.576;13.568;2023-06-19T14:18:56;7.60;;;6.97;;
9409;SDS011;4744;52.576;13.568;2023-06-19T14:21:25;6.53;;;6.03;;
9409;SDS011;4744;52.576;13.568;2023-06-19T14:23:52;6.57;;;6.07;;
9409;SDS011;4744;52.576;13.568;2023-06-19T14:26:19;6.80;;;6.20;;
9409;SDS011;4744;52.576;13.568;2023-06-19T14:28:46;6.65;;;6.07;;
9409;SDS011;4744;52.576;13.568;2023-06-19T14:31:13;6.15;;;5.75;;
9409;SDS011;4744;52.576;13.568;2023-06-19T14:33:40;6.72;;;6.22;;
9409;SDS011;4744;52.576;13.568;2023-06-19T14:36:07;7.20;;;6.60;;
9409;SDS011;4744;52.576;13.568;2023-06-19T14:38:35;6.82;;;6.32;;
9409;SDS011;4744;52.576;13.568;2023-06-19T14:41:02;7.53;;;6.60;;
9409;SDS011;4744;52.576;13.568;2023-06-19T14:43:29;7.00;;;6.40;;
9409;SDS011;4744;52.576;13.568;2023-06-19T14:45:57;7.13;;;6.47;;
9409;SDS011;4744;52.576;13.568;2023-06-19T14:48:25;6.97;;;6.47;;
9409;SDS011;4744;52.576;13.568;2023-06-19T14:50:55;7.63;;;6.90;;
9409;SDS011;4744;52.576;13.568;2023-06-19T14:53:22;6.70;;;6.15;;
9409;SDS011;4744;52.576;13.568;2023-06-19T14:55:50;7.00;;;6.50;;